Time;durP1;ratioP1;P1;durP2;ratioP2;P2;SDS_P1;SDS_P2;PMS_P1;PMS_P2;Temp;Humidity;BMP_temperature;BMP_pressure;BME280_temperature;BME280_humidity;BME280_pressure;Samples;Min_cycle;Max_cycle;Signal;HPM_P1;HPM_P2
2021/05/15 00:00:21;;;;;;;18.42;15.70;;;10.60;99.90;;;;;;12227020;28;20055;-78
2021/05/15 00:06:21;;;;;;;19.27;15.60;;;10.40;99.90;;;;;;12202560;28;20036;-78
2021/05/15 00:12:22;;;;;;;20.00;16.08;;;10.20;99.90;;;;;;12208054;28;20040;-78
2021/05/15 00:18:23;;;;;;;20.58;15.98;;;9.80;99.90;;;;;;12214944;28;20115;-79
2021/05/15 00:24:24;;;;;;;22.63;17.88;;;9.50;99.90;;;;;;12211891;28;20042;-78
2021/05/15 00:30:24;;;;;;;19.23;15.63;;;9.70;99.90;;;;;;12208616;28;20043;-79
2021/05/15 00:36:25;;;;;;;21.80;16.52;;;9.50;99.90;;;;;;12217333;28;20395;-79
2021/05/15 00:42:26;;;;;;;22.30;17.30;;;9.50;99.90;;;;;;12216369;28;20067;-79
2021/05/15 00:48:26;;;;;;;21.83;16.65;;;9.50;99.90;;;;;;12211705;28;20455;-79
2021/05/15 00:54:27;;;;;;;20.67;17.73;;;9.30;99.90;;;;;;12204303;28;20500;-79
2021/05/15 01:00:28;;;;;;;22.17;16.48;;;9.60;99.90;;;;;;12204987;28;20513;-78
2021/05/15 01:06:29;;;;;;;20.42;14.13;;;9.80;99.90;;;;;;12201778;28;20044;-78
2021/05/15 01:12:30;;;;;;;20.70;14.77;;;9.80;99.90;;;;;;12203562;28;20067;-79
2021/05/15 01:18:31;;;;;;;17.50;14.70;;;9.80;99.90;;;;;;12203257;28;20047;-79
2021/05/15 01:24:32;;;;;;;18.60;14.63;;;9.80;99.90;;;;;;12210378;28;20829;-78
2021/05/15 01:30:32;;;;;;;17.95;14.27;;;9.30;99.90;;;;;;12203971;28;20685;-78
2021/05/15 01:36:40;;;;;;;22.90;16.42;;;8.80;99.90;;;;;;12206602;28;20048;-78
2021/05/15 01:42:41;;;;;;;22.48;15.80;;;8.80;99.90;;;;;;12200011;28;20067;-79
2021/05/15 01:48:42;;;;;;;22.45;15.27;;;9.10;99.90;;;;;;12206345;28;20056;-79
2021/05/15 01:54:43;;;;;;;20.35;14.15;;;9.30;99.90;;;;;;12204775;28;20138;-78
2021/05/15 02:00:44;;;;;;;20.08;15.82;;;8.90;99.90;;;;;;12209337;28;20060;-78
2021/05/15 02:06:44;;;;;;;20.13;16.13;;;8.70;99.90;;;;;;12196008;28;20048;-78
2021/05/15 02:12:45;;;;;;;21.70;15.50;;;8.70;99.90;;;;;;12208656;28;20106;-79
2021/05/15 02:18:47;;;;;;;21.30;16.70;;;8.80;99.90;;;;;;12199486;28;20043;-78
2021/05/15 02:24:47;;;;;;;28.48;20.27;;;8.50;99.90;;;;;;12202436;28;20078;-78
2021/05/15 02:30:48;;;;;;;30.08;21.75;;;8.00;99.90;;;;;;12206636;28;20400;-78
2021/05/15 02:36:49;;;;;;;27.08;20.17;;;8.40;99.90;;;;;;12199773;28;20488;-78
2021/05/15 02:42:52;;;;;;;28.70;21.15;;;8.20;99.90;;;;;;12198301;28;20064;-79
2021/05/15 02:48:52;;;;;;;27.70;20.00;;;8.00;99.90;;;;;;12209245;28;20087;-79
2021/05/15 02:54:53;;;;;;;25.42;17.88;;;7.90;99.90;;;;;;12213083;28;20052;-79
2021/05/15 03:00:54;;;;;;;23.08;17.52;;;7.90;99.90;;;;;;12205805;28;20132;-78
2021/05/15 03:06:54;;;;;;;22.67;17.17;;;8.00;99.90;;;;;;12211012;28;20044;-79
2021/05/15 03:12:56;;;;;;;23.67;18.45;;;8.30;99.90;;;;;;12204420;28;20076;-78
2021/05/15 03:18:57;;;;;;;28.35;18.67;;;8.50;99.90;;;;;;12198611;28;20415;-78
2021/05/15 03:24:57;;;;;;;27.42;20.25;;;8.80;99.90;;;;;;12202390;28;20039;-78
2021/05/15 03:30:58;;;;;;;29.05;19.77;;;8.80;99.90;;;;;;12203008;28;20044;-78
2021/05/15 03:36:59;;;;;;;27.92;19.92;;;8.90;99.90;;;;;;12203542;28;20127;-78
2021/05/15 03:42:59;;;;;;;25.15;18.23;;;9.10;99.90;;;;;;12206639;28;20143;-78
2021/05/15 03:49:00;;;;;;;24.25;18.42;;;8.80;99.90;;;;;;12201356;28;20043;-78
2021/05/15 03:55:01;;;;;;;25.02;18.70;;;8.90;99.90;;;;;;12196408;28;20478;-78
2021/05/15 04:01:02;;;;;;;25.77;18.33;;;8.90;99.90;;;;;;12207890;28;20185;-78
2021/05/15 04:07:04;;;;;;;21.58;18.17;;;9.00;99.90;;;;;;12203149;28;20048;-78
2021/05/15 04:13:23;;;;;;;23.70;18.23;;;9.10;99.90;;;;;;12205270;28;20044;-78
2021/05/15 04:19:24;;;;;;;24.73;18.10;;;9.10;99.90;;;;;;12212065;28;20036;-79
2021/05/15 04:25:25;;;;;;;25.88;19.63;;;9.40;99.90;;;;;;12215782;28;20044;-79
2021/05/15 04:31:27;;;;;;;21.10;16.73;;;9.50;99.90;;;;;;12205295;28;20110;-79
2021/05/15 04:37:27;;;;;;;22.33;18.17;;;9.60;99.90;;;;;;12220457;28;20837;-79
2021/05/15 04:43:28;;;;;;;22.55;18.08;;;9.70;99.90;;;;;;12205569;28;20036;-79
2021/05/15 04:49:29;;;;;;;22.40;16.88;;;9.80;99.90;;;;;;12213545;28;20059;-79
2021/05/15 04:55:29;;;;;;;25.52;17.20;;;9.70;99.90;;;;;;12209730;28;20145;-79
2021/05/15 05:01:30;;;;;;;16.67;14.57;;;9.50;99.90;;;;;;12197930;28;20036;-79
2021/05/15 05:07:31;;;;;;;24.65;17.85;;;9.40;99.90;;;;;;12209069;28;20500;-79
2021/05/15 05:13:32;;;;;;;22.02;18.20;;;9.60;99.90;;;;;;12211172;28;20052;-79
2021/05/15 05:19:32;;;;;;;22.00;17.95;;;10.10;99.90;;;;;;12204866;28;20252;-79
2021/05/15 05:25:34;;;;;;;17.55;13.63;;;10.00;99.90;;;;;;12205552;28;20039;-79
2021/05/15 05:31:43;;;;;;;10.40;8.27;;;9.90;99.90;;;;;;12215270;28;20120;-79
2021/05/15 05:37:45;;;;;;;10.00;7.00;;;9.90;99.90;;;;;;12214102;28;20036;-79
2021/05/15 05:43:46;;;;;;;9.98;7.15;;;10.00;99.90;;;;;;12203280;28;20040;-79
2021/05/15 05:49:46;;;;;;;9.05;6.65;;;10.10;99.90;;;;;;12208505;28;20075;-79
2021/05/15 05:55:47;;;;;;;8.82;6.75;;;10.10;99.90;;;;;;12204822;28;20059;-79
2021/05/15 06:01:47;;;;;;;7.95;6.05;;;10.10;99.90;;;;;;12202774;28;20519;-79
2021/05/15 06:07:48;;;;;;;9.48;5.60;;;10.10;99.90;;;;;;12199351;28;20751;-79
2021/05/15 06:13:49;;;;;;;8.05;5.15;;;10.20;99.90;;;;;;12215730;28;20444;-79
2021/05/15 06:19:51;;;;;;;6.43;4.75;;;10.20;99.90;;;;;;12231634;28;20056;-79
2021/05/15 06:25:52;;;;;;;6.05;5.00;;;10.30;99.90;;;;;;12251696;28;20113;-79
2021/05/15 06:31:53;;;;;;;6.63;5.18;;;10.30;99.90;;;;;;12214530;28;20039;-80
2021/05/15 06:37:53;;;;;;;8.05;4.93;;;10.30;99.90;;;;;;12202596;28;20131;-79
2021/05/15 06:43:54;;;;;;;7.80;4.82;;;10.40;99.90;;;;;;12197469;28;20047;-79
2021/05/15 06:49:55;;;;;;;5.20;4.18;;;10.40;99.90;;;;;;12191485;28;20043;-79
2021/05/15 06:55:55;;;;;;;7.32;3.80;;;10.50;99.90;;;;;;12200411;28;20064;-79
2021/05/15 07:01:56;;;;;;;4.72;2.83;;;10.60;99.90;;;;;;12195446;28;20079;-79
2021/05/15 07:07:57;;;;;;;5.28;3.45;;;10.80;99.90;;;;;;12194638;28;20476;-80
2021/05/15 07:13:57;;;;;;;7.05;2.80;;;10.90;99.90;;;;;;12201571;28;20087;-79
2021/05/15 07:20:01;;;;;;;5.32;2.90;;;11.00;99.90;;;;;;12204024;28;20028;-79
2021/05/15 07:26:02;;;;;;;4.60;2.95;;;11.10;99.90;;;;;;12205319;28;20037;-80
2021/05/15 07:32:02;;;;;;;3.75;2.55;;;11.20;99.90;;;;;;12208548;28;20040;-79
2021/05/15 07:38:03;;;;;;;3.22;2.13;;;11.30;99.90;;;;;;12214179;28;20106;-79
2021/05/15 07:44:04;;;;;;;5.53;2.55;;;11.30;99.90;;;;;;12210864;28;20098;-79
2021/05/15 07:50:05;;;;;;;4.72;2.45;;;11.30;99.90;;;;;;12205356;28;20043;-79
2021/05/15 07:56:06;;;;;;;4.78;2.72;;;11.40;99.90;;;;;;12212087;28;20186;-79
2021/05/15 08:02:07;;;;;;;7.30;2.72;;;11.20;99.90;;;;;;12190956;28;20413;-79
2021/05/15 08:08:07;;;;;;;7.60;3.38;;;11.00;99.90;;;;;;12213789;28;20357;-79
2021/05/15 08:14:08;;;;;;;4.82;3.40;;;10.80;99.90;;;;;;12207174;28;20071;-78
2021/05/15 08:20:10;;;;;;;6.10;3.88;;;10.90;99.90;;;;;;12216888;28;20066;-79
2021/05/15 08:26:11;;;;;;;6.97;4.10;;;10.90;99.90;;;;;;12208553;28;20059;-78
2021/05/15 08:32:12;;;;;;;6.40;4.55;;;11.10;99.90;;;;;;12285217;28;20473;-78
2021/05/15 08:38:12;;;;;;;5.68;4.45;;;11.80;99.90;;;;;;12209227;28;20044;-80
2021/05/15 08:44:13;;;;;;;4.80;4.15;;;12.70;99.90;;;;;;12229050;28;20154;-79
2021/05/15 08:50:17;;;;;;;7.72;4.65;;;12.90;99.90;;;;;;12221626;28;20043;-78
2021/05/15 08:56:17;;;;;;;8.88;5.65;;;13.50;99.90;;;;;;12211153;28;20106;-79
2021/05/15 09:02:18;;;;;;;6.78;5.50;;;13.90;99.90;;;;;;12200507;28;20546;-79
2021/05/15 09:08:45;;;;;;;7.47;5.60;;;14.20;99.90;;;;;;12206715;28;20064;-79
2021/05/15 09:15:00;;;;;;;5.18;4.43;;;14.10;99.90;;;;;;12207996;28;20127;-78
2021/05/15 09:21:06;;;;;;;5.15;4.53;;;13.70;99.90;;;;;;12204876;28;20518;-79
2021/05/15 09:27:12;;;;;;;6.25;5.15;;;13.40;99.90;;;;;;12212030;28;20774;-79
2021/05/15 09:33:15;;;;;;;7.50;6.45;;;12.90;99.90;;;;;;12213138;28;20047;-79
2021/05/15 09:39:23;;;;;;;7.38;6.10;;;13.10;99.90;;;;;;12215604;28;20488;-79
2021/05/15 09:45:27;;;;;;;7.35;6.35;;;13.00;99.90;;;;;;12213333;28;20103;-79
2021/05/15 09:51:30;;;;;;;8.38;6.68;;;13.10;99.90;;;;;;12198924;28;20427;-79
2021/05/15 09:57:33;;;;;;;7.10;6.00;;;14.00;99.90;;;;;;12204333;28;20087;-80
2021/05/15 10:03:36;;;;;;;5.20;4.70;;;14.50;99.90;;;;;;12210499;28;20181;-80
2021/05/15 10:09:37;;;;;;;5.88;4.72;;;15.30;99.90;;;;;;12203304;28;20047;-80
2021/05/15 10:15:40;;;;;;;6.05;4.68;;;15.80;99.90;;;;;;12201138;28;20138;-80
2021/05/15 10:21:42;;;;;;;4.63;3.78;;;15.80;99.90;;;;;;12218128;28;20056;-79
2021/05/15 10:27:44;;;;;;;5.57;4.80;;;15.10;99.90;;;;;;12202201;28;20078;-79
2021/05/15 10:33:47;;;;;;;5.20;3.63;;;14.50;99.90;;;;;;12203224;28;20072;-80
2021/05/15 10:39:50;;;;;;;3.53;2.95;;;14.10;99.90;;;;;;12206262;28;20067;-80
2021/05/15 10:45:51;;;;;;;4.82;3.63;;;13.70;99.90;;;;;;12210041;28;20056;-80
2021/05/15 10:51:55;;;;;;;15.65;3.47;;;13.30;99.90;;;;;;12206223;28;20097;-80
2021/05/15 10:58:10;;;;;;;13.45;3.00;;;11.20;99.90;;;;;;12214936;28;20141;-81
2021/05/15 11:04:32;;;;;;;5.35;3.15;;;8.90;99.90;;;;;;12211312;28;20500;-80
2021/05/15 11:10:35;;;;;;;3.22;1.40;;;8.70;99.90;;;;;;12211543;28;20045;-79
2021/05/15 11:16:37;;;;;;;5.40;0.90;;;8.70;99.90;;;;;;12208994;28;20193;-79
2021/05/15 11:22:44;;;;;;;1.55;0.80;;;8.80;99.90;;;;;;12233031;28;20450;-79
2021/05/15 11:28:47;;;;;;;4.90;1.10;;;9.30;99.90;;;;;;12205854;28;20051;-79
2021/05/15 11:34:49;;;;;;;1.50;0.70;;;10.00;99.90;;;;;;12223583;28;20105;-78
2021/05/15 11:40:52;;;;;;;1.55;1.02;;;10.90;99.90;;;;;;12266790;28;20063;-78
2021/05/15 11:46:54;;;;;;;2.90;1.90;;;11.50;99.90;;;;;;12217393;28;20051;-80
2021/05/15 11:53:03;;;;;;;2.60;1.98;;;12.20;99.90;;;;;;12227427;28;20056;-78
2021/05/15 11:59:05;;;;;;;2.72;1.67;;;13.10;99.90;;;;;;12222498;28;20129;-78
2021/05/15 12:05:14;;;;;;;1.00;0.73;;;13.80;99.90;;;;;;12235228;28;20087;-78
2021/05/15 12:11:16;;;;;;;1.17;0.80;;;14.20;99.90;;;;;;12216952;28;20129;-78
2021/05/15 12:17:20;;;;;;;1.10;0.90;;;14.50;99.90;;;;;;12222219;28;20122;-78
2021/05/15 12:23:26;;;;;;;2.20;1.00;;;14.90;99.90;;;;;;12201895;28;20047;-79
2021/05/15 12:29:31;;;;;;;2.13;1.20;;;15.50;99.90;;;;;;12215524;28;20086;-79
2021/05/15 12:35:35;;;;;;;3.08;1.90;;;16.50;99.90;;;;;;12210576;28;20138;-80
2021/05/15 12:41:39;;;;;;;1.90;1.40;;;15.70;99.90;;;;;;12212370;28;20103;-79
2021/05/15 12:47:42;;;;;;;3.08;2.33;;;15.60;99.90;;;;;;12206189;28;20521;-79
2021/05/15 12:53:43;;;;;;;2.88;2.03;;;14.80;99.90;;;;;;12210660;28;20098;-79
2021/05/15 12:59:46;;;;;;;2.65;1.95;;;14.50;99.90;;;;;;12206738;28;20090;-79
2021/05/15 13:05:49;;;;;;;4.00;2.70;;;14.30;99.90;;;;;;12210421;28;20175;-79
2021/05/15 13:11:51;;;;;;;7.30;3.10;;;13.00;99.90;;;;;;12206286;28;20489;-79
2021/05/15 13:17:52;;;;;;;5.13;4.03;;;12.30;99.90;;;;;;12208341;28;20054;-79
2021/05/15 13:23:54;;;;;;;5.25;3.58;;;11.90;99.90;;;;;;12209184;28;20090;-79
2021/05/15 13:29:56;;;;;;;5.80;4.78;;;11.80;99.90;;;;;;12213115;28;20277;-80
2021/05/15 13:35:58;;;;;;;7.88;5.35;;;11.80;99.90;;;;;;12159456;28;20169;-79
2021/05/15 13:42:00;;;;;;;6.93;5.90;;;11.70;99.90;;;;;;12158377;28;20102;-79
2021/05/15 13:48:02;;;;;;;7.38;6.30;;;11.70;99.90;;;;;;12155983;29;20126;-79
2021/05/15 13:54:05;;;;;;;7.43;6.25;;;11.60;99.90;;;;;;12162885;28;20453;-79
2021/05/15 14:00:08;;;;;;;10.40;6.50;;;11.90;99.90;;;;;;12147477;29;20492;-79
2021/05/15 14:06:10;;;;;;;8.38;6.57;;;12.30;99.90;;;;;;12194081;29;20171;-79
2021/05/15 14:12:12;;;;;;;7.28;6.30;;;12.50;99.90;;;;;;12205345;29;20162;-80
2021/05/15 14:18:14;;;;;;;7.20;5.82;;;12.90;99.90;;;;;;12202311;28;20142;-80
2021/05/15 14:24:16;;;;;;;7.10;5.80;;;13.40;99.90;;;;;;12209421;29;20170;-80
2021/05/15 14:30:19;;;;;;;5.80;4.95;;;13.70;99.90;;;;;;12203836;28;20185;-80
2021/05/15 14:36:21;;;;;;;6.90;5.68;;;13.00;99.90;;;;;;12203431;28;20083;-79
2021/05/15 14:42:23;;;;;;;7.78;5.60;;;12.90;99.90;;;;;;12192541;28;20130;-80
2021/05/15 14:48:31;;;;;;;9.32;6.78;;;12.50;99.90;;;;;;12203024;28;20056;-80
2021/05/15 14:54:33;;;;;;;3.92;2.80;;;12.30;99.90;;;;;;12199878;28;20048;-79
2021/05/15 15:00:35;;;;;;;5.25;2.67;;;11.90;99.90;;;;;;12196102;28;20515;-79
2021/05/15 15:06:36;;;;;;;3.17;2.45;;;11.60;99.90;;;;;;12188843;28;20052;-79
2021/05/15 15:12:49;;;;;;;3.00;1.73;;;11.90;99.90;;;;;;12199102;29;20047;-79
2021/05/15 15:18:51;;;;;;;2.22;1.50;;;13.10;99.90;;;;;;12207637;28;20087;-79
2021/05/15 15:24:52;;;;;;;2.42;1.23;;;13.50;99.90;;;;;;12196461;28;20640;-79
2021/05/15 15:30:54;;;;;;;2.17;1.40;;;14.10;99.90;;;;;;12197417;28;20486;-79
2021/05/15 15:36:56;;;;;;;2.42;1.38;;;14.70;99.90;;;;;;12195929;29;20131;-80
2021/05/15 15:42:58;;;;;;;2.97;1.63;;;14.90;99.90;;;;;;12185049;28;20138;-80
2021/05/15 15:49:00;;;;;;;4.30;1.80;;;15.00;99.90;;;;;;12168277;28;20080;-80
2021/05/15 15:55:07;;;;;;;2.97;1.77;;;14.80;99.90;;;;;;12204561;28;20135;-80
2021/05/15 16:01:08;;;;;;;1.85;1.42;;;15.80;99.90;;;;;;12215595;28;20086;-81
2021/05/15 16:07:10;;;;;;;2.00;1.40;;;15.90;99.90;;;;;;12217494;28;20051;-80
2021/05/15 16:13:13;;;;;;;3.28;1.55;;;16.10;99.90;;;;;;12211611;28;20044;-80
2021/05/15 16:19:15;;;;;;;2.30;1.48;;;15.40;99.90;;;;;;12225056;28;20090;-80
2021/05/15 16:25:17;;;;;;;3.00;1.77;;;15.40;99.90;;;;;;12255966;28;20059;-80
2021/05/15 16:31:19;;;;;;;3.15;1.35;;;15.50;99.90;;;;;;12256506;28;20478;-80
2021/05/15 16:37:21;;;;;;;3.20;1.60;;;15.80;99.90;;;;;;12213279;28;20504;-79
2021/05/15 16:43:24;;;;;;;2.63;1.42;;;16.00;99.90;;;;;;12203157;28;21045;-80
2021/05/15 16:49:26;;;;;;;1.52;1.00;;;16.20;99.90;;;;;;12213411;28;20760;-81
2021/05/15 16:55:28;;;;;;;2.55;0.68;;;16.80;99.90;;;;;;12209945;28;20123;-80
2021/05/15 17:01:30;;;;;;;1.50;0.70;;;16.70;99.90;;;;;;12200091;28;20053;-79
2021/05/15 17:07:32;;;;;;;0.90;0.70;;;16.50;99.90;;;;;;12224269;28;20059;-81
2021/05/15 17:13:35;;;;;;;2.15;0.93;;;16.70;99.90;;;;;;12213649;28;20985;-80
2021/05/15 17:19:37;;;;;;;1.35;0.80;;;15.80;99.90;;;;;;12208416;28;20404;-80
2021/05/15 17:25:39;;;;;;;1.77;0.68;;;17.10;99.90;;;;;;12212717;28;20401;-81
2021/05/15 17:31:41;;;;;;;1.35;0.60;;;18.60;99.90;;;;;;12227385;28;20450;-80
2021/05/15 17:37:43;;;;;;;1.77;0.77;;;17.80;99.90;;;;;;12294224;28;20082;-80
2021/05/15 17:43:45;;;;;;;2.63;0.80;;;15.90;99.90;;;;;;12212891;28;20048;-80
2021/05/15 17:49:47;;;;;;;3.70;1.05;;;14.70;99.90;;;;;;12210922;28;20122;-80
2021/05/15 17:55:49;;;;;;;1.65;0.95;;;13.90;99.90;;;;;;12214729;28;20091;-80
2021/05/15 18:01:51;;;;;;;1.90;0.90;;;13.40;99.90;;;;;;12215752;28;20064;-80
2021/05/15 18:07:53;;;;;;;2.58;0.70;;;13.20;99.90;;;;;;12214904;28;20067;-80
2021/05/15 18:13:54;;;;;;;2.40;0.90;;;13.10;99.90;;;;;;12220933;28;20056;-80
2021/05/15 18:19:56;;;;;;;3.72;1.25;;;12.90;99.90;;;;;;12216280;28;20135;-80
2021/05/15 18:25:59;;;;;;;3.67;0.93;;;12.70;99.90;;;;;;12211386;28;20142;-80
2021/05/15 18:32:03;;;;;;;3.83;1.17;;;12.10;99.90;;;;;;12200953;28;20131;-79
2021/05/15 18:38:05;;;;;;;1.48;0.65;;;10.90;99.90;;;;;;12207501;28;20080;-80
2021/05/15 18:44:07;;;;;;;2.97;1.27;;;10.80;99.90;;;;;;12206263;28;20178;-80
2021/05/15 18:50:09;;;;;;;3.55;1.00;;;11.10;99.90;;;;;;12196462;28;20175;-79
2021/05/15 18:56:12;;;;;;;2.50;1.00;;;10.90;99.90;;;;;;12209862;28;20052;-79
2021/05/15 19:02:14;;;;;;;4.00;1.33;;;11.00;99.90;;;;;;12205815;28;20087;-79
2021/05/15 19:08:16;;;;;;;2.92;1.10;;;11.20;99.90;;;;;;12201188;28;20095;-80
2021/05/15 19:14:19;;;;;;;2.25;1.20;;;11.20;99.90;;;;;;12169681;28;20489;-79
2021/05/15 19:20:21;;;;;;;5.15;1.27;;;11.20;99.90;;;;;;12157331;28;20053;-80
2021/05/15 19:26:25;;;;;;;4.88;1.30;;;11.40;99.90;;;;;;12147956;29;20179;-80
2021/05/15 19:32:27;;;;;;;;;;;11.30;99.90;;;;;;12160833;28;20148;-79
2021/05/15 19:38:29;;;;;;;3.15;1.23;;;11.20;99.90;;;;;;12162265;29;20446;-79
2021/05/15 19:44:31;;;;;;;2.17;1.00;;;11.20;99.90;;;;;;12154869;28;20050;-79
2021/05/15 19:50:42;;;;;;;2.53;1.30;;;11.20;99.90;;;;;;12159056;28;20198;-79
2021/05/15 19:56:44;;;;;;;3.05;1.23;;;10.60;99.90;;;;;;12213332;28;20097;-79
2021/05/15 20:02:47;;;;;;;3.97;1.55;;;10.40;99.90;;;;;;12211406;28;20068;-79
2021/05/15 20:08:49;;;;;;;5.43;1.70;;;10.30;99.90;;;;;;12220717;28;20057;-79
2021/05/15 20:14:52;;;;;;;3.78;1.80;;;10.30;99.90;;;;;;12205853;28;20071;-79
2021/05/15 20:20:58;;;;;;;3.65;2.00;;;10.40;99.90;;;;;;12206940;28;20047;-79
2021/05/15 20:26:59;;;;;;;3.58;1.70;;;10.40;99.90;;;;;;12208509;28;20068;-78
2021/05/15 20:33:02;;;;;;;2.38;1.60;;;10.40;99.90;;;;;;12206949;28;20085;-79
2021/05/15 20:39:06;;;;;;;3.17;2.08;;;10.30;99.90;;;;;;12213869;28;20485;-79
2021/05/15 20:45:09;;;;;;;6.03;1.95;;;10.40;99.90;;;;;;12214649;28;20441;-78
2021/05/15 20:51:12;;;;;;;4.50;2.20;;;10.40;99.90;;;;;;12207091;28;20451;-78
2021/05/15 20:57:14;;;;;;;4.93;2.33;;;10.40;99.90;;;;;;12211695;28;20090;-78
2021/05/15 21:03:17;;;;;;;3.42;2.05;;;10.40;99.90;;;;;;12212017;28;20146;-79
2021/05/15 21:09:19;;;;;;;3.15;1.90;;;10.40;99.90;;;;;;12214015;28;20083;-78
2021/05/15 21:15:21;;;;;;;3.58;1.90;;;10.50;99.90;;;;;;12203665;28;20126;-78
2021/05/15 21:21:23;;;;;;;4.22;2.00;;;10.60;99.90;;;;;;12210041;28;20137;-78
2021/05/15 21:27:25;;;;;;;4.95;2.17;;;10.40;99.90;;;;;;12207749;28;20595;-78
2021/05/15 21:33:27;;;;;;;3.42;1.80;;;10.40;99.90;;;;;;12205146;28;20055;-78
2021/05/15 21:39:30;;;;;;;2.80;1.85;;;10.30;99.90;;;;;;12207635;28;20063;-78
2021/05/15 21:45:32;;;;;;;3.92;2.40;;;10.20;99.90;;;;;;12244348;28;20041;-78
2021/05/15 21:51:34;;;;;;;6.70;2.50;;;10.20;99.90;;;;;;12244035;28;20059;-78
2021/05/15 21:57:36;;;;;;;4.85;2.70;;;10.20;99.90;;;;;;12206105;28;20408;-78
2021/05/15 22:03:38;;;;;;;8.80;3.28;;;10.20;99.90;;;;;;12207201;28;20568;-77
2021/05/15 22:09:40;;;;;;;4.25;3.10;;;10.20;99.90;;;;;;12200653;28;20762;-78
2021/05/15 22:15:42;;;;;;;3.38;2.80;;;10.10;99.90;;;;;;12204401;28;20043;-78
2021/05/15 22:21:44;;;;;;;4.45;2.80;;;10.10;99.90;;;;;;12200349;28;20067;-77
2021/05/15 22:27:50;;;;;;;7.03;2.97;;;10.10;99.90;;;;;;12197641;28;20488;-78
2021/05/15 22:33:52;;;;;;;4.70;3.25;;;9.90;99.90;;;;;;12195377;28;20580;-78
2021/05/15 22:39:54;;;;;;;7.75;3.78;;;10.00;99.90;;;;;;12202053;28;20079;-77
2021/05/15 22:45:57;;;;;;;4.60;2.97;;;10.00;99.90;;;;;;12204714;28;20134;-77
2021/05/15 22:51:59;;;;;;;3.80;2.63;;;9.90;99.90;;;;;;12207462;28;21241;-78
2021/05/15 22:58:03;;;;;;;7.45;3.10;;;10.00;99.90;;;;;;12205195;28;20505;-78
2021/05/15 23:04:05;;;;;;;3.60;2.70;;;10.00;99.90;;;;;;12193300;28;20056;-78
2021/05/15 23:10:08;;;;;;;6.80;3.38;;;10.00;99.90;;;;;;12208212;28;20136;-78
2021/05/15 23:16:10;;;;;;;7.75;2.97;;;10.00;99.90;;;;;;12217791;28;20420;-78
2021/05/15 23:22:13;;;;;;;7.40;2.70;;;10.00;99.90;;;;;;12210165;28;20045;-78
2021/05/15 23:28:16;;;;;;;4.43;2.60;;;;;;;;;;12219558;28;20060;-78
2021/05/15 23:34:18;;;;;;;4.47;2.67;;;10.00;99.90;;;;;;12171236;28;20541;-78
2021/05/15 23:40:23;;;;;;;4.95;2.85;;;10.00;99.90;;;;;;12154036;28;20147;-78
2021/05/15 23:46:25;;;;;;;2.88;2.15;;;10.00;99.90;;;;;;12157879;28;20482;-79
2021/05/15 23:52:27;;;;;;;4.47;1.70;;;10.00;99.90;;;;;;12152393;29;20139;-78
2021/05/15 23:58:29;;;;;;;4.45;1.58;;;10.00;99.90;;;;;;12156643;28;20257;-79
